Impacts TAF Board INFO
FOR SITUATIONAL AWARENESS. NOT TO BE USED FOR FLIGHT PLANNING PURPOSES.
IDs:

KMCB - McComb/Lewis Fld, MS, US

Issued at 0525 UTC 19 Nov 2017
Updated at 0641 UTC 19 Nov 2017
Potential Impact None Slight Moderate High
Time0553Z 19/07Z 19/08Z 19/09Z 19/10Z 19/11Z 19/12Z 19/13Z 19/14Z 19/15Z 19/16Z 19/17Z 19/18Z 19/19Z>>
Type OBS PRVL PRVL PRVL PRVL PRVL PRVL PRVL PRVL PRVL PRVL PRVL PRVL PRVL
VIS 10 >6 >6 >6 >6 >6 >6 >6 >6 >6 >6 >6 >6 >6
CIG 75 -- -- -- -- -- -- -- -- -- -- -- -- --
Cover BKN SCT SCT SCT SCT SCT SCT SCT SCT SCT SCT SCT SCT SCT
FltCat VFR VFR VFR VFR VFR VFR VFR VFR VFR VFR VFR VFR VFR VFR
WX -- -- -- -- -- -- -- -- -- -- -- -- -- --
WDir 350 350 350 350 350 350 350 350 350 350 350 350 350 350
WSpd 13 15 15 15 15 15 15 15 15 15 15 15 15 15
WGst 20 22 22 22 22 22 22 22 22 22 22 22 22 22

Raw TAF
KMCB 190525Z 1906/2006 35015G22KT P6SM SCT250
  FM192200 35007KT P6SM SKC


Raw METAR
KMCB 190553Z AUTO 35013G20KT 10SM BKN075 12/03 A3008 RMK AO2 PK WND 35031/0500 SLP183 60001 T01170033 10228 20117 402610117 51036
KMCB 190453Z AUTO 35017G31KT 10SM FEW075 13/03 A3006 RMK AO2 PK WND 35031/0437 SLP174 T01330033
KMCB 190353Z AUTO 34020G28KT 10SM SCT034 15/07 A3002 RMK AO2 PK WND 34028/0350 SLP161 T01500067

METAR Board
Radar Display
Forecast Discussion

FOR SITUATIONAL AWARENESS. NOT TO BE USED FOR FLIGHT PLANNING PURPOSES.